sensor_id;sensor_type;location;lat;lon;timestamp;P1;durP1;ratioP1;P2;durP2;ratioP2
3627;SDS011;1830;49.000;12.074;2023-02-28T00:00:24;13.93;;;7.17;;
3627;SDS011;1830;49.000;12.074;2023-02-28T00:02:51;11.43;;;7.63;;
3627;SDS011;1830;49.000;12.074;2023-02-28T00:05:19;10.40;;;6.93;;
3627;SDS011;1830;49.000;12.074;2023-02-28T00:07:47;9.57;;;6.63;;
3627;SDS011;1830;49.000;12.074;2023-02-28T00:10:16;11.93;;;7.07;;
3627;SDS011;1830;49.000;12.074;2023-02-28T00:12:45;9.80;;;7.13;;
3627;SDS011;1830;49.000;12.074;2023-02-28T00:15:13;11.10;;;7.03;;
3627;SDS011;1830;49.000;12.074;2023-02-28T00:17:40;10.57;;;7.20;;
3627;SDS011;1830;49.000;12.074;2023-02-28T00:20:08;9.00;;;6.87;;
3627;SDS011;1830;49.000;12.074;2023-02-28T00:22:37;8.23;;;6.97;;
3627;SDS011;1830;49.000;12.074;2023-02-28T00:25:04;10.57;;;7.57;;
3627;SDS011;1830;49.000;12.074;2023-02-28T00:27:33;11.47;;;7.60;;
3627;SDS011;1830;49.000;12.074;2023-02-28T00:30:00;13.23;;;7.80;;
3627;SDS011;1830;49.000;12.074;2023-02-28T00:32:32;10.57;;;7.57;;
3627;SDS011;1830;49.000;12.074;2023-02-28T00:34:59;11.93;;;8.07;;
3627;SDS011;1830;49.000;12.074;2023-02-28T00:37:27;10.03;;;7.40;;
3627;SDS011;1830;49.000;12.074;2023-02-28T00:39:54;10.80;;;8.33;;
3627;SDS011;1830;49.000;12.074;2023-02-28T00:42:21;12.53;;;8.10;;
3627;SDS011;1830;49.000;12.074;2023-02-28T00:44:48;9.30;;;7.00;;
3627;SDS011;1830;49.000;12.074;2023-02-28T00:47:14;11.40;;;7.80;;
3627;SDS011;1830;49.000;12.074;2023-02-28T00:49:42;12.40;;;8.20;;
3627;SDS011;1830;49.000;12.074;2023-02-28T00:52:09;9.30;;;6.97;;
3627;SDS011;1830;49.000;12.074;2023-02-28T00:54:36;13.30;;;8.13;;
3627;SDS011;1830;49.000;12.074;2023-02-28T00:57:03;13.33;;;8.70;;
3627;SDS011;1830;49.000;12.074;2023-02-28T00:59:30;10.57;;;7.73;;
3627;SDS011;1830;49.000;12.074;2023-02-28T01:01:57;11.87;;;7.93;;
3627;SDS011;1830;49.000;12.074;2023-02-28T01:04:23;10.33;;;7.30;;
3627;SDS011;1830;49.000;12.074;2023-02-28T01:06:52;13.03;;;8.53;;
3627;SDS011;1830;49.000;12.074;2023-02-28T01:09:18;12.17;;;8.30;;
3627;SDS011;1830;49.000;12.074;2023-02-28T01:11:45;11.03;;;7.87;;
3627;SDS011;1830;49.000;12.074;2023-02-28T01:14:12;11.77;;;7.77;;
3627;SDS011;1830;49.000;12.074;2023-02-28T01:16:40;17.90;;;8.30;;
3627;SDS011;1830;49.000;12.074;2023-02-28T01:19:08;10.47;;;7.57;;
3627;SDS011;1830;49.000;12.074;2023-02-28T01:21:35;15.40;;;8.43;;
3627;SDS011;1830;49.000;12.074;2023-02-28T01:24:04;11.43;;;8.10;;
3627;SDS011;1830;49.000;12.074;2023-02-28T01:26:32;15.87;;;7.70;;
3627;SDS011;1830;49.000;12.074;2023-02-28T01:29:04;14.03;;;8.77;;
3627;SDS011;1830;49.000;12.074;2023-02-28T01:31:31;14.63;;;9.33;;
3627;SDS011;1830;49.000;12.074;2023-02-28T01:33:58;11.40;;;8.80;;
3627;SDS011;1830;49.000;12.074;2023-02-28T01:36:25;15.27;;;9.20;;
3627;SDS011;1830;49.000;12.074;2023-02-28T01:38:52;11.70;;;8.27;;
3627;SDS011;1830;49.000;12.074;2023-02-28T01:41:21;16.60;;;8.30;;
3627;SDS011;1830;49.000;12.074;2023-02-28T01:43:58;15.03;;;9.07;;
3627;SDS011;1830;49.000;12.074;2023-02-28T01:46:28;13.47;;;8.53;;
3627;SDS011;1830;49.000;12.074;2023-02-28T01:48:56;11.90;;;8.60;;
3627;SDS011;1830;49.000;12.074;2023-02-28T01:51:29;14.53;;;9.40;;
3627;SDS011;1830;49.000;12.074;2023-02-28T01:54:00;13.47;;;9.17;;
3627;SDS011;1830;49.000;12.074;2023-02-28T01:56:32;16.60;;;8.77;;
3627;SDS011;1830;49.000;12.074;2023-02-28T01:59:01;13.77;;;9.30;;
3627;SDS011;1830;49.000;12.074;2023-02-28T02:01:29;14.30;;;8.93;;
3627;SDS011;1830;49.000;12.074;2023-02-28T02:03:58;14.00;;;8.67;;
3627;SDS011;1830;49.000;12.074;2023-02-28T02:06:28;12.47;;;8.87;;
3627;SDS011;1830;49.000;12.074;2023-02-28T02:09:00;20.20;;;9.23;;
3627;SDS011;1830;49.000;12.074;2023-02-28T02:11:28;14.63;;;9.43;;
3627;SDS011;1830;49.000;12.074;2023-02-28T02:14:01;12.63;;;8.80;;
3627;SDS011;1830;49.000;12.074;2023-02-28T02:16:51;13.67;;;9.40;;
3627;SDS011;1830;49.000;12.074;2023-02-28T02:22:28;14.67;;;9.57;;
3627;SDS011;1830;49.000;12.074;2023-02-28T02:25:12;15.43;;;9.53;;
3627;SDS011;1830;49.000;12.074;2023-02-28T02:27:55;13.87;;;8.80;;
3627;SDS011;1830;49.000;12.074;2023-02-28T02:36:37;12.93;;;8.60;;
3627;SDS011;1830;49.000;12.074;2023-02-28T02:39:07;18.23;;;10.17;;
3627;SDS011;1830;49.000;12.074;2023-02-28T02:41:40;11.53;;;8.00;;
3627;SDS011;1830;49.000;12.074;2023-02-28T02:44:13;14.70;;;9.80;;
3627;SDS011;1830;49.000;12.074;2023-02-28T02:46:44;14.00;;;9.70;;
3627;SDS011;1830;49.000;12.074;2023-02-28T02:49:14;15.87;;;9.27;;
3627;SDS011;1830;49.000;12.074;2023-02-28T02:51:47;18.97;;;10.20;;
3627;SDS011;1830;49.000;12.074;2023-02-28T02:54:17;14.00;;;8.93;;
3627;SDS011;1830;49.000;12.074;2023-02-28T02:56:47;16.73;;;9.97;;
3627;SDS011;1830;49.000;12.074;2023-02-28T02:59:16;14.40;;;9.70;;
3627;SDS011;1830;49.000;12.074;2023-02-28T03:01:46;18.40;;;10.17;;
3627;SDS011;1830;49.000;12.074;2023-02-28T03:04:16;17.20;;;10.50;;
3627;SDS011;1830;49.000;12.074;2023-02-28T03:06:47;17.73;;;9.33;;
3627;SDS011;1830;49.000;12.074;2023-02-28T03:09:14;14.87;;;9.47;;
3627;SDS011;1830;49.000;12.074;2023-02-28T03:11:41;15.87;;;8.70;;
3627;SDS011;1830;49.000;12.074;2023-02-28T03:14:15;13.57;;;8.67;;
3627;SDS011;1830;49.000;12.074;2023-02-28T03:19:52;15.90;;;9.97;;
3627;SDS011;1830;49.000;12.074;2023-02-28T03:22:35;14.83;;;10.43;;
3627;SDS011;1830;49.000;12.074;2023-02-28T03:25:16;17.60;;;11.67;;
3627;SDS011;1830;49.000;12.074;2023-02-28T03:27:47;43.37;;;18.83;;
3627;SDS011;1830;49.000;12.074;2023-02-28T03:30:22;40.87;;;17.27;;
3627;SDS011;1830;49.000;12.074;2023-02-28T03:32:54;20.77;;;10.77;;
3627;SDS011;1830;49.000;12.074;2023-02-28T03:35:24;20.43;;;10.53;;
3627;SDS011;1830;49.000;12.074;2023-02-28T03:37:59;16.77;;;10.03;;
3627;SDS011;1830;49.000;12.074;2023-02-28T03:40:32;15.50;;;9.60;;
3627;SDS011;1830;49.000;12.074;2023-02-28T03:43:02;14.30;;;9.50;;
3627;SDS011;1830;49.000;12.074;2023-02-28T03:45:36;18.40;;;10.80;;
3627;SDS011;1830;49.000;12.074;2023-02-28T03:48:06;21.13;;;10.77;;
3627;SDS011;1830;49.000;12.074;2023-02-28T03:50:39;15.97;;;10.20;;
3627;SDS011;1830;49.000;12.074;2023-02-28T03:53:10;19.33;;;11.50;;
3627;SDS011;1830;49.000;12.074;2023-02-28T03:55:40;16.67;;;9.97;;
3627;SDS011;1830;49.000;12.074;2023-02-28T03:58:12;14.00;;;10.07;;
3627;SDS011;1830;49.000;12.074;2023-02-28T04:00:45;20.70;;;11.40;;
3627;SDS011;1830;49.000;12.074;2023-02-28T04:03:14;14.90;;;10.47;;
3627;SDS011;1830;49.000;12.074;2023-02-28T04:05:46;17.77;;;11.13;;
3627;SDS011;1830;49.000;12.074;2023-02-28T04:08:16;16.10;;;11.30;;
3627;SDS011;1830;49.000;12.074;2023-02-28T04:10:43;16.53;;;11.20;;
3627;SDS011;1830;49.000;12.074;2023-02-28T04:13:16;16.27;;;10.77;;
3627;SDS011;1830;49.000;12.074;2023-02-28T04:15:43;24.93;;;11.80;;
3627;SDS011;1830;49.000;12.074;2023-02-28T04:18:10;18.50;;;11.60;;
3627;SDS011;1830;49.000;12.074;2023-02-28T04:20:37;21.13;;;11.90;;
3627;SDS011;1830;49.000;12.074;2023-02-28T04:23:04;15.80;;;11.20;;
3627;SDS011;1830;49.000;12.074;2023-02-28T04:25:32;15.30;;;10.43;;
3627;SDS011;1830;49.000;12.074;2023-02-28T04:27:59;18.57;;;11.43;;
3627;SDS011;1830;49.000;12.074;2023-02-28T04:30:26;29.80;;;15.70;;
3627;SDS011;1830;49.000;12.074;2023-02-28T04:32:53;26.50;;;15.73;;
3627;SDS011;1830;49.000;12.074;2023-02-28T04:35:20;21.80;;;13.00;;
3627;SDS011;1830;49.000;12.074;2023-02-28T04:37:47;23.20;;;12.70;;
3627;SDS011;1830;49.000;12.074;2023-02-28T04:40:13;20.10;;;11.60;;
3627;SDS011;1830;49.000;12.074;2023-02-28T04:42:42;18.27;;;12.13;;
3627;SDS011;1830;49.000;12.074;2023-02-28T04:45:09;19.27;;;11.40;;
3627;SDS011;1830;49.000;12.074;2023-02-28T04:47:36;20.30;;;11.73;;
3627;SDS011;1830;49.000;12.074;2023-02-28T04:50:03;32.23;;;12.60;;
3627;SDS011;1830;49.000;12.074;2023-02-28T04:52:30;20.40;;;13.17;;
3627;SDS011;1830;49.000;12.074;2023-02-28T04:54:57;21.73;;;12.70;;
3627;SDS011;1830;49.000;12.074;2023-02-28T04:57:24;22.40;;;13.13;;
3627;SDS011;1830;49.000;12.074;2023-02-28T04:59:52;19.50;;;12.07;;
3627;SDS011;1830;49.000;12.074;2023-02-28T05:02:19;19.20;;;11.23;;
3627;SDS011;1830;49.000;12.074;2023-02-28T11:10:30;20.90;;;13.47;;
3627;SDS011;1830;49.000;12.074;2023-02-28T11:12:59;24.43;;;13.13;;
3627;SDS011;1830;49.000;12.074;2023-02-28T11:15:28;22.00;;;13.60;;
3627;SDS011;1830;49.000;12.074;2023-02-28T11:17:56;30.40;;;15.00;;
3627;SDS011;1830;49.000;12.074;2023-02-28T11:20:25;18.17;;;12.80;;
3627;SDS011;1830;49.000;12.074;2023-02-28T11:22:54;18.47;;;12.60;;
3627;SDS011;1830;49.000;12.074;2023-02-28T11:25:24;21.70;;;13.90;;
3627;SDS011;1830;49.000;12.074;2023-02-28T11:27:55;24.60;;;15.00;;
3627;SDS011;1830;49.000;12.074;2023-02-28T11:30:27;23.73;;;13.77;;
3627;SDS011;1830;49.000;12.074;2023-02-28T11:32:59;25.53;;;13.90;;
3627;SDS011;1830;49.000;12.074;2023-02-28T11:35:28;19.63;;;12.40;;
3627;SDS011;1830;49.000;12.074;2023-02-28T11:38:00;20.57;;;12.80;;
3627;SDS011;1830;49.000;12.074;2023-02-28T11:40:30;26.37;;;13.20;;
3627;SDS011;1830;49.000;12.074;2023-02-28T11:43:08;24.13;;;12.50;;
3627;SDS011;1830;49.000;12.074;2023-02-28T11:45:50;16.80;;;12.50;;
3627;SDS011;1830;49.000;12.074;2023-02-28T11:48:31;22.17;;;13.70;;
3627;SDS011;1830;49.000;12.074;2023-02-28T11:51:06;18.37;;;13.00;;
3627;SDS011;1830;49.000;12.074;2023-02-28T11:56:49;25.40;;;15.20;;
3627;SDS011;1830;49.000;12.074;2023-02-28T11:59:27;32.90;;;13.73;;
3627;SDS011;1830;49.000;12.074;2023-02-28T12:02:20;22.53;;;12.37;;
3627;SDS011;1830;49.000;12.074;2023-02-28T12:04:52;24.30;;;14.07;;
3627;SDS011;1830;49.000;12.074;2023-02-28T12:07:34;19.17;;;12.90;;
3627;SDS011;1830;49.000;12.074;2023-02-28T12:10:10;27.33;;;12.70;;
3627;SDS011;1830;49.000;12.074;2023-02-28T12:12:47;26.90;;;14.57;;
3627;SDS011;1830;49.000;12.074;2023-02-28T12:15:35;19.00;;;13.10;;
3627;SDS011;1830;49.000;12.074;2023-02-28T12:18:26;25.10;;;14.00;;
3627;SDS011;1830;49.000;12.074;2023-02-28T12:21:08;22.13;;;13.10;;
3627;SDS011;1830;49.000;12.074;2023-02-28T12:26:34;24.23;;;14.47;;
3627;SDS011;1830;49.000;12.074;2023-02-28T12:29:16;24.20;;;14.47;;
3627;SDS011;1830;49.000;12.074;2023-02-28T12:31:49;26.33;;;14.27;;
3627;SDS011;1830;49.000;12.074;2023-02-28T12:34:19;25.10;;;14.97;;
3627;SDS011;1830;49.000;12.074;2023-02-28T12:36:49;25.03;;;14.47;;
3627;SDS011;1830;49.000;12.074;2023-02-28T12:39:19;23.67;;;14.43;;
3627;SDS011;1830;49.000;12.074;2023-02-28T12:41:51;27.47;;;13.10;;
3627;SDS011;1830;49.000;12.074;2023-02-28T12:44:26;23.07;;;14.10;;
3627;SDS011;1830;49.000;12.074;2023-02-28T12:46:58;22.83;;;13.40;;
3627;SDS011;1830;49.000;12.074;2023-02-28T12:49:30;20.23;;;12.70;;
3627;SDS011;1830;49.000;12.074;2023-02-28T12:52:00;22.43;;;12.10;;
3627;SDS011;1830;49.000;12.074;2023-02-28T12:54:29;20.40;;;13.63;;
3627;SDS011;1830;49.000;12.074;2023-02-28T12:57:02;19.27;;;12.90;;
3627;SDS011;1830;49.000;12.074;2023-02-28T12:59:36;23.63;;;13.40;;
3627;SDS011;1830;49.000;12.074;2023-02-28T13:05:14;24.20;;;13.33;;
3627;SDS011;1830;49.000;12.074;2023-02-28T13:08:03;19.27;;;12.33;;
3627;SDS011;1830;49.000;12.074;2023-02-28T13:10:50;21.57;;;13.00;;
3627;SDS011;1830;49.000;12.074;2023-02-28T13:13:20;20.37;;;13.40;;
3627;SDS011;1830;49.000;12.074;2023-02-28T13:16:03;18.03;;;11.97;;
3627;SDS011;1830;49.000;12.074;2023-02-28T13:18:34;15.73;;;11.73;;
3627;SDS011;1830;49.000;12.074;2023-02-28T13:21:06;20.63;;;12.67;;
3627;SDS011;1830;49.000;12.074;2023-02-28T13:23:38;34.30;;;13.27;;
3627;SDS011;1830;49.000;12.074;2023-02-28T13:26:23;18.00;;;11.40;;
3627;SDS011;1830;49.000;12.074;2023-02-28T13:29:24;19.40;;;13.10;;
3627;SDS011;1830;49.000;12.074;2023-02-28T13:38:24;15.97;;;12.20;;
3627;SDS011;1830;49.000;12.074;2023-02-28T13:44:01;25.00;;;15.97;;
3627;SDS011;1830;49.000;12.074;2023-02-28T13:46:31;21.73;;;12.87;;
3627;SDS011;1830;49.000;12.074;2023-02-28T13:51:44;26.93;;;13.27;;
3627;SDS011;1830;49.000;12.074;2023-02-28T13:54:24;22.90;;;13.20;;
3627;SDS011;1830;49.000;12.074;2023-02-28T13:57:11;18.23;;;12.13;;
3627;SDS011;1830;49.000;12.074;2023-02-28T13:59:49;19.17;;;12.63;;
3627;SDS011;1830;49.000;12.074;2023-02-28T14:02:37;19.17;;;12.30;;
3627;SDS011;1830;49.000;12.074;2023-02-28T14:05:16;23.43;;;12.90;;
3627;SDS011;1830;49.000;12.074;2023-02-28T14:07:46;18.03;;;12.77;;
3627;SDS011;1830;49.000;12.074;2023-02-28T14:10:21;17.20;;;11.40;;
3627;SDS011;1830;49.000;12.074;2023-02-28T14:16:01;21.40;;;13.00;;
3627;SDS011;1830;49.000;12.074;2023-02-28T14:18:32;22.83;;;13.40;;
3627;SDS011;1830;49.000;12.074;2023-02-28T14:21:09;30.73;;;14.13;;
3627;SDS011;1830;49.000;12.074;2023-02-28T14:23:44;18.80;;;13.70;;
3627;SDS011;1830;49.000;12.074;2023-02-28T14:26:53;23.60;;;11.90;;
3627;SDS011;1830;49.000;12.074;2023-02-28T14:29:36;21.10;;;13.67;;
3627;SDS011;1830;49.000;12.074;2023-02-28T14:32:22;21.70;;;12.50;;
3627;SDS011;1830;49.000;12.074;2023-02-28T14:34:55;19.03;;;12.10;;
3627;SDS011;1830;49.000;12.074;2023-02-28T14:37:32;18.77;;;12.10;;
3627;SDS011;1830;49.000;12.074;2023-02-28T14:40:02;18.57;;;13.13;;
3627;SDS011;1830;49.000;12.074;2023-02-28T14:42:32;24.10;;;13.27;;
3627;SDS011;1830;49.000;12.074;2023-02-28T14:44:59;19.57;;;13.80;;
3627;SDS011;1830;49.000;12.074;2023-02-28T14:47:27;24.83;;;14.87;;
3627;SDS011;1830;49.000;12.074;2023-02-28T14:49:59;20.10;;;13.20;;
3627;SDS011;1830;49.000;12.074;2023-02-28T14:52:29;17.70;;;12.77;;
3627;SDS011;1830;49.000;12.074;2023-02-28T14:54:58;23.77;;;14.57;;
3627;SDS011;1830;49.000;12.074;2023-02-28T14:57:27;37.13;;;14.73;;
3627;SDS011;1830;49.000;12.074;2023-02-28T14:59:59;22.93;;;13.37;;
3627;SDS011;1830;49.000;12.074;2023-02-28T15:02:30;24.90;;;13.93;;
3627;SDS011;1830;49.000;12.074;2023-02-28T15:05:07;29.70;;;16.43;;
3627;SDS011;1830;49.000;12.074;2023-02-28T15:07:45;23.00;;;13.17;;
3627;SDS011;1830;49.000;12.074;2023-02-28T15:10:16;24.40;;;14.13;;
3627;SDS011;1830;49.000;12.074;2023-02-28T15:12:47;23.37;;;13.80;;
3627;SDS011;1830;49.000;12.074;2023-02-28T15:15:18;26.60;;;15.23;;
3627;SDS011;1830;49.000;12.074;2023-02-28T15:17:48;22.80;;;13.80;;
3627;SDS011;1830;49.000;12.074;2023-02-28T15:20:19;21.50;;;13.70;;
3627;SDS011;1830;49.000;12.074;2023-02-28T15:22:47;21.70;;;12.70;;
3627;SDS011;1830;49.000;12.074;2023-02-28T15:25:19;23.23;;;14.37;;
3627;SDS011;1830;49.000;12.074;2023-02-28T15:27:47;20.47;;;13.53;;
3627;SDS011;1830;49.000;12.074;2023-02-28T15:30:17;23.07;;;13.23;;
3627;SDS011;1830;49.000;12.074;2023-02-28T15:33:01;24.17;;;15.83;;
3627;SDS011;1830;49.000;12.074;2023-02-28T15:35:46;26.40;;;15.10;;
3627;SDS011;1830;49.000;12.074;2023-02-28T15:38:14;24.30;;;16.13;;
3627;SDS011;1830;49.000;12.074;2023-02-28T15:40:44;22.53;;;15.43;;
3627;SDS011;1830;49.000;12.074;2023-02-28T15:43:19;23.30;;;14.53;;
3627;SDS011;1830;49.000;12.074;2023-02-28T15:45:50;30.57;;;15.50;;
3627;SDS011;1830;49.000;12.074;2023-02-28T15:48:20;20.10;;;14.10;;
3627;SDS011;1830;49.000;12.074;2023-02-28T15:50:51;28.57;;;15.57;;
3627;SDS011;1830;49.000;12.074;2023-02-28T15:53:21;23.63;;;13.90;;
3627;SDS011;1830;49.000;12.074;2023-02-28T15:55:54;24.13;;;14.47;;
3627;SDS011;1830;49.000;12.074;2023-02-28T15:58:24;25.33;;;14.30;;
3627;SDS011;1830;49.000;12.074;2023-02-28T16:01:05;22.33;;;14.40;;
3627;SDS011;1830;49.000;12.074;2023-02-28T16:03:43;31.67;;;16.17;;
3627;SDS011;1830;49.000;12.074;2023-02-28T16:09:09;32.83;;;15.83;;
3627;SDS011;1830;49.000;12.074;2023-02-28T16:11:39;25.30;;;15.47;;
3627;SDS011;1830;49.000;12.074;2023-02-28T16:14:15;29.40;;;16.00;;
3627;SDS011;1830;49.000;12.074;2023-02-28T16:16:44;29.63;;;16.07;;
3627;SDS011;1830;49.000;12.074;2023-02-28T16:19:12;30.67;;;16.97;;
3627;SDS011;1830;49.000;12.074;2023-02-28T16:21:40;26.13;;;16.90;;
3627;SDS011;1830;49.000;12.074;2023-02-28T16:24:07;28.90;;;19.63;;
3627;SDS011;1830;49.000;12.074;2023-02-28T16:26:34;34.33;;;19.90;;
3627;SDS011;1830;49.000;12.074;2023-02-28T16:29:02;27.90;;;17.70;;
3627;SDS011;1830;49.000;12.074;2023-02-28T16:31:30;27.43;;;17.77;;
3627;SDS011;1830;49.000;12.074;2023-02-28T16:34:00;30.53;;;20.17;;
3627;SDS011;1830;49.000;12.074;2023-02-28T16:36:28;38.00;;;20.63;;
3627;SDS011;1830;49.000;12.074;2023-02-28T16:38:57;29.90;;;20.67;;
3627;SDS011;1830;49.000;12.074;2023-02-28T16:41:24;47.60;;;25.13;;
3627;SDS011;1830;49.000;12.074;2023-02-28T16:43:53;49.90;;;24.67;;
3627;SDS011;1830;49.000;12.074;2023-02-28T16:46:24;42.67;;;24.87;;
3627;SDS011;1830;49.000;12.074;2023-02-28T16:48:53;51.37;;;29.80;;
3627;SDS011;1830;49.000;12.074;2023-02-28T16:51:20;31.60;;;18.40;;
3627;SDS011;1830;49.000;12.074;2023-02-28T16:53:47;41.03;;;21.57;;
3627;SDS011;1830;49.000;12.074;2023-02-28T16:56:16;33.20;;;20.93;;
3627;SDS011;1830;49.000;12.074;2023-02-28T16:58:45;34.40;;;22.67;;
3627;SDS011;1830;49.000;12.074;2023-02-28T17:01:12;45.87;;;29.03;;
3627;SDS011;1830;49.000;12.074;2023-02-28T17:03:39;39.30;;;25.27;;
3627;SDS011;1830;49.000;12.074;2023-02-28T17:06:09;64.03;;;33.10;;
3627;SDS011;1830;49.000;12.074;2023-02-28T17:08:43;32.60;;;21.70;;
3627;SDS011;1830;49.000;12.074;2023-02-28T17:11:10;36.63;;;20.60;;
3627;SDS011;1830;49.000;12.074;2023-02-28T17:13:38;30.57;;;20.17;;
3627;SDS011;1830;49.000;12.074;2023-02-28T17:16:05;38.70;;;20.43;;
3627;SDS011;1830;49.000;12.074;2023-02-28T17:18:34;32.90;;;20.13;;
3627;SDS011;1830;49.000;12.074;2023-02-28T17:21:05;34.90;;;21.27;;
3627;SDS011;1830;49.000;12.074;2023-02-28T17:23:38;30.77;;;20.17;;
3627;SDS011;1830;49.000;12.074;2023-02-28T17:26:05;37.90;;;20.93;;
3627;SDS011;1830;49.000;12.074;2023-02-28T17:28:32;31.93;;;20.30;;
3627;SDS011;1830;49.000;12.074;2023-02-28T17:31:00;44.00;;;22.83;;
3627;SDS011;1830;49.000;12.074;2023-02-28T17:33:27;39.07;;;23.40;;
3627;SDS011;1830;49.000;12.074;2023-02-28T17:35:54;37.53;;;21.67;;
3627;SDS011;1830;49.000;12.074;2023-02-28T17:38:20;37.07;;;22.40;;
3627;SDS011;1830;49.000;12.074;2023-02-28T17:40:47;41.80;;;24.03;;
3627;SDS011;1830;49.000;12.074;2023-02-28T17:43:17;38.43;;;20.60;;
3627;SDS011;1830;49.000;12.074;2023-02-28T17:45:44;37.70;;;20.17;;
3627;SDS011;1830;49.000;12.074;2023-02-28T17:48:12;35.77;;;22.97;;
3627;SDS011;1830;49.000;12.074;2023-02-28T17:50:40;35.27;;;21.70;;
3627;SDS011;1830;49.000;12.074;2023-02-28T17:53:07;35.30;;;19.47;;
3627;SDS011;1830;49.000;12.074;2023-02-28T17:55:33;38.10;;;23.63;;
3627;SDS011;1830;49.000;12.074;2023-02-28T17:58:01;33.60;;;20.67;;
3627;SDS011;1830;49.000;12.074;2023-02-28T18:00:29;36.20;;;21.77;;
3627;SDS011;1830;49.000;12.074;2023-02-28T18:02:59;41.17;;;21.43;;
3627;SDS011;1830;49.000;12.074;2023-02-28T18:05:27;42.10;;;21.03;;
3627;SDS011;1830;49.000;12.074;2023-02-28T18:07:55;48.60;;;22.33;;
3627;SDS011;1830;49.000;12.074;2023-02-28T18:10:22;35.53;;;21.53;;
3627;SDS011;1830;49.000;12.074;2023-02-28T18:12:50;37.87;;;21.73;;
3627;SDS011;1830;49.000;12.074;2023-02-28T18:15:19;35.93;;;23.50;;
3627;SDS011;1830;49.000;12.074;2023-02-28T18:17:47;34.80;;;21.87;;
3627;SDS011;1830;49.000;12.074;2023-02-28T18:20:15;39.00;;;20.33;;
3627;SDS011;1830;49.000;12.074;2023-02-28T18:22:44;36.17;;;21.87;;
3627;SDS011;1830;49.000;12.074;2023-02-28T18:25:11;34.33;;;20.60;;
3627;SDS011;1830;49.000;12.074;2023-02-28T18:27:41;34.40;;;20.30;;
3627;SDS011;1830;49.000;12.074;2023-02-28T18:30:19;30.00;;;19.53;;
3627;SDS011;1830;49.000;12.074;2023-02-28T18:32:46;31.93;;;20.90;;
3627;SDS011;1830;49.000;12.074;2023-02-28T18:35:13;34.47;;;21.47;;
3627;SDS011;1830;49.000;12.074;2023-02-28T18:37:40;36.40;;;20.60;;
3627;SDS011;1830;49.000;12.074;2023-02-28T18:40:09;33.60;;;21.80;;
3627;SDS011;1830;49.000;12.074;2023-02-28T18:42:36;41.63;;;23.83;;
3627;SDS011;1830;49.000;12.074;2023-02-28T18:45:03;37.90;;;23.70;;
3627;SDS011;1830;49.000;12.074;2023-02-28T18:47:33;42.93;;;25.50;;
3627;SDS011;1830;49.000;12.074;2023-02-28T18:50:00;43.60;;;24.67;;
3627;SDS011;1830;49.000;12.074;2023-02-28T18:52:27;41.33;;;25.07;;
3627;SDS011;1830;49.000;12.074;2023-02-28T18:54:54;38.67;;;22.50;;
3627;SDS011;1830;49.000;12.074;2023-02-28T18:57:22;40.33;;;21.87;;
3627;SDS011;1830;49.000;12.074;2023-02-28T18:59:49;42.13;;;22.10;;
3627;SDS011;1830;49.000;12.074;2023-02-28T19:02:15;31.50;;;21.63;;
3627;SDS011;1830;49.000;12.074;2023-02-28T19:04:42;37.33;;;23.10;;
3627;SDS011;1830;49.000;12.074;2023-02-28T19:07:09;35.60;;;22.47;;
3627;SDS011;1830;49.000;12.074;2023-02-28T19:09:36;39.97;;;24.13;;
3627;SDS011;1830;49.000;12.074;2023-02-28T19:12:03;34.10;;;22.70;;
3627;SDS011;1830;49.000;12.074;2023-02-28T19:14:31;47.73;;;24.33;;
3627;SDS011;1830;49.000;12.074;2023-02-28T19:16:58;36.10;;;23.10;;
3627;SDS011;1830;49.000;12.074;2023-02-28T19:19:25;38.90;;;23.40;;
3627;SDS011;1830;49.000;12.074;2023-02-28T19:21:52;34.73;;;22.57;;
3627;SDS011;1830;49.000;12.074;2023-02-28T19:24:19;42.73;;;23.13;;
3627;SDS011;1830;49.000;12.074;2023-02-28T19:26:46;39.77;;;23.40;;
3627;SDS011;1830;49.000;12.074;2023-02-28T19:29:13;35.13;;;22.00;;
3627;SDS011;1830;49.000;12.074;2023-02-28T19:31:41;36.27;;;22.70;;
3627;SDS011;1830;49.000;12.074;2023-02-28T19:34:08;44.63;;;24.33;;
3627;SDS011;1830;49.000;12.074;2023-02-28T19:36:34;36.63;;;22.33;;
3627;SDS011;1830;49.000;12.074;2023-02-28T19:39:01;38.57;;;22.90;;
3627;SDS011;1830;49.000;12.074;2023-02-28T19:41:28;41.13;;;23.40;;
3627;SDS011;1830;49.000;12.074;2023-02-28T19:43:55;37.43;;;23.10;;
3627;SDS011;1830;49.000;12.074;2023-02-28T19:46:23;42.87;;;22.80;;
3627;SDS011;1830;49.000;12.074;2023-02-28T19:48:53;41.87;;;22.10;;
3627;SDS011;1830;49.000;12.074;2023-02-28T19:51:20;43.53;;;22.90;;
3627;SDS011;1830;49.000;12.074;2023-02-28T19:53:47;41.07;;;23.73;;
3627;SDS011;1830;49.000;12.074;2023-02-28T19:56:13;36.30;;;22.50;;
3627;SDS011;1830;49.000;12.074;2023-02-28T19:58:40;36.00;;;22.23;;
3627;SDS011;1830;49.000;12.074;2023-02-28T20:01:07;39.40;;;22.40;;
3627;SDS011;1830;49.000;12.074;2023-02-28T20:03:36;40.70;;;23.83;;
3627;SDS011;1830;49.000;12.074;2023-02-28T20:06:04;39.13;;;23.17;;
3627;SDS011;1830;49.000;12.074;2023-02-28T20:08:33;39.07;;;23.40;;
3627;SDS011;1830;49.000;12.074;2023-02-28T20:11:01;42.50;;;22.03;;
3627;SDS011;1830;49.000;12.074;2023-02-28T20:13:28;39.33;;;22.83;;
3627;SDS011;1830;49.000;12.074;2023-02-28T20:15:57;55.57;;;23.17;;
3627;SDS011;1830;49.000;12.074;2023-02-28T20:18:25;41.07;;;22.57;;
3627;SDS011;1830;49.000;12.074;2023-02-28T20:20:51;37.33;;;23.70;;
3627;SDS011;1830;49.000;12.074;2023-02-28T20:23:20;37.70;;;23.47;;
3627;SDS011;1830;49.000;12.074;2023-02-28T20:25:47;43.90;;;24.50;;
3627;SDS011;1830;49.000;12.074;2023-02-28T20:28:15;42.50;;;25.43;;
3627;SDS011;1830;49.000;12.074;2023-02-28T20:30:42;45.60;;;27.50;;
3627;SDS011;1830;49.000;12.074;2023-02-28T20:33:12;45.63;;;26.40;;
3627;SDS011;1830;49.000;12.074;2023-02-28T20:35:39;41.40;;;25.37;;
3627;SDS011;1830;49.000;12.074;2023-02-28T20:38:06;46.00;;;26.20;;
3627;SDS011;1830;49.000;12.074;2023-02-28T20:40:34;41.27;;;25.37;;
3627;SDS011;1830;49.000;12.074;2023-02-28T20:43:01;46.60;;;27.17;;
3627;SDS011;1830;49.000;12.074;2023-02-28T20:45:28;48.60;;;28.10;;
3627;SDS011;1830;49.000;12.074;2023-02-28T20:47:57;49.67;;;29.67;;
3627;SDS011;1830;49.000;12.074;2023-02-28T20:50:27;50.73;;;30.37;;
3627;SDS011;1830;49.000;12.074;2023-02-28T20:52:53;48.20;;;29.60;;
3627;SDS011;1830;49.000;12.074;2023-02-28T20:55:20;56.20;;;30.60;;
3627;SDS011;1830;49.000;12.074;2023-02-28T20:57:48;58.23;;;30.03;;
3627;SDS011;1830;49.000;12.074;2023-02-28T21:00:15;49.30;;;29.10;;
3627;SDS011;1830;49.000;12.074;2023-02-28T21:02:44;50.57;;;30.63;;
3627;SDS011;1830;49.000;12.074;2023-02-28T21:05:11;59.83;;;32.03;;
3627;SDS011;1830;49.000;12.074;2023-02-28T21:07:38;47.30;;;28.90;;
3627;SDS011;1830;49.000;12.074;2023-02-28T21:10:05;53.53;;;30.03;;
3627;SDS011;1830;49.000;12.074;2023-02-28T21:12:33;58.43;;;31.33;;
3627;SDS011;1830;49.000;12.074;2023-02-28T21:15:01;54.83;;;29.77;;
3627;SDS011;1830;49.000;12.074;2023-02-28T21:17:28;53.93;;;29.30;;
3627;SDS011;1830;49.000;12.074;2023-02-28T21:19:55;45.27;;;27.83;;
3627;SDS011;1830;49.000;12.074;2023-02-28T21:22:22;45.37;;;26.43;;
3627;SDS011;1830;49.000;12.074;2023-02-28T21:24:48;43.67;;;25.40;;
3627;SDS011;1830;49.000;12.074;2023-02-28T21:27:15;47.07;;;26.90;;
3627;SDS011;1830;49.000;12.074;2023-02-28T21:29:42;45.13;;;27.20;;
3627;SDS011;1830;49.000;12.074;2023-02-28T21:32:10;46.70;;;27.27;;
3627;SDS011;1830;49.000;12.074;2023-02-28T21:34:38;39.93;;;24.83;;
3627;SDS011;1830;49.000;12.074;2023-02-28T21:37:05;55.10;;;26.90;;
3627;SDS011;1830;49.000;12.074;2023-02-28T21:39:32;49.70;;;27.40;;
3627;SDS011;1830;49.000;12.074;2023-02-28T21:41:59;44.03;;;25.60;;